sensor_id;sensor_type;location;lat;lon;timestamp;pressure;altitude;pressure_sealevel;temperature;humidity
42603;BME280;28233;55.748;48.752;2023-06-14T00:01:11;99720.47;;;12.99;45.42
42603;BME280;28233;55.748;48.752;2023-06-14T00:03:16;99721.75;;;13.01;45.07
42603;BME280;28233;55.748;48.752;2023-06-14T00:05:20;99721.06;;;13.04;45.38
42603;BME280;28233;55.748;48.752;2023-06-14T00:07:39;99717.63;;;13.07;45.35
42603;BME280;28233;55.748;48.752;2023-06-14T00:09:46;99716.81;;;13.07;45.25
42603;BME280;28233;55.748;48.752;2023-06-14T00:11:48;99712.13;;;13.07;44.91
42603;BME280;28233;55.748;48.752;2023-06-14T00:13:51;99717.78;;;13.11;44.76
42603;BME280;28233;55.748;48.752;2023-06-14T00:15:54;99713.56;;;13.14;45.21
42603;BME280;28233;55.748;48.752;2023-06-14T00:17:57;99718.75;;;13.15;44.83
42603;BME280;28233;55.748;48.752;2023-06-14T00:20:04;99709.31;;;13.16;44.88
42603;BME280;28233;55.748;48.752;2023-06-14T00:22:10;99705.88;;;13.19;44.87
42603;BME280;28233;55.748;48.752;2023-06-14T00:24:14;99708.31;;;13.21;45.17
42603;BME280;28233;55.748;48.752;2023-06-14T00:26:17;99702.94;;;13.24;45.03
42603;BME280;28233;55.748;48.752;2023-06-14T00:28:20;99698.38;;;13.28;44.73
42603;BME280;28233;55.748;48.752;2023-06-14T00:30:23;99698.06;;;13.30;45.19
42603;BME280;28233;55.748;48.752;2023-06-14T00:32:27;99707.59;;;13.32;44.64
42603;BME280;28233;55.748;48.752;2023-06-14T00:34:30;99704.16;;;13.36;45.12
42603;BME280;28233;55.748;48.752;2023-06-14T00:36:33;99709.84;;;13.39;45.26
42603;BME280;28233;55.748;48.752;2023-06-14T00:38:36;99704.78;;;13.41;44.65
42603;BME280;28233;55.748;48.752;2023-06-14T00:40:38;99705.28;;;13.43;45.20
42603;BME280;28233;55.748;48.752;2023-06-14T00:42:41;99709.31;;;13.46;44.60
42603;BME280;28233;55.748;48.752;2023-06-14T00:44:44;99707.03;;;13.48;44.94
42603;BME280;28233;55.748;48.752;2023-06-14T00:46:47;99702.78;;;13.50;45.10
42603;BME280;28233;55.748;48.752;2023-06-14T00:48:50;99700.50;;;13.52;45.06
42603;BME280;28233;55.748;48.752;2023-06-14T00:50:54;99704.84;;;13.53;45.09
42603;BME280;28233;55.748;48.752;2023-06-14T00:52:57;99702.56;;;13.56;45.07
42603;BME280;28233;55.748;48.752;2023-06-14T00:55:00;99692.00;;;13.58;45.05
42603;BME280;28233;55.748;48.752;2023-06-14T00:57:07;99699.13;;;13.59;44.97
42603;BME280;28233;55.748;48.752;2023-06-14T00:59:10;99706.28;;;13.60;45.24
42603;BME280;28233;55.748;48.752;2023-06-14T01:01:13;99703.16;;;13.61;44.89
42603;BME280;28233;55.748;48.752;2023-06-14T01:03:17;99694.88;;;13.61;45.09
42603;BME280;28233;55.748;48.752;2023-06-14T01:05:25;99709.53;;;13.62;45.77
42603;BME280;28233;55.748;48.752;2023-06-14T01:10:12;99712.59;;;13.60;46.28
42603;BME280;28233;55.748;48.752;2023-06-14T01:12:34;99718.44;;;13.59;46.97
42603;BME280;28233;55.748;48.752;2023-06-14T01:14:39;99710.16;;;13.59;46.81
42603;BME280;28233;55.748;48.752;2023-06-14T01:16:44;99711.31;;;13.58;46.97
42603;BME280;28233;55.748;48.752;2023-06-14T01:18:48;99718.81;;;13.57;47.05
42603;BME280;28233;55.748;48.752;2023-06-14T01:20:52;99708.56;;;13.58;47.16
42603;BME280;28233;55.748;48.752;2023-06-14T01:22:57;99717.78;;;13.62;46.99
42603;BME280;28233;55.748;48.752;2023-06-14T01:25:00;99714.22;;;13.61;47.59
42603;BME280;28233;55.748;48.752;2023-06-14T01:27:05;99717.44;;;13.63;47.53
42603;BME280;28233;55.748;48.752;2023-06-14T01:29:09;99709.97;;;13.64;47.33
42603;BME280;28233;55.748;48.752;2023-06-14T01:31:19;99715.63;;;13.67;47.77
42603;BME280;28233;55.748;48.752;2023-06-14T01:33:26;99706.66;;;13.70;47.69
42603;BME280;28233;55.748;48.752;2023-06-14T01:35:30;99707.94;;;13.73;47.67
42603;BME280;28233;55.748;48.752;2023-06-14T01:37:33;99704.53;;;13.76;47.80
42603;BME280;28233;55.748;48.752;2023-06-14T01:39:37;99711.91;;;13.84;47.81
42603;BME280;28233;55.748;48.752;2023-06-14T01:41:40;99704.22;;;13.90;48.05
42603;BME280;28233;55.748;48.752;2023-06-14T01:43:44;99703.19;;;13.94;47.83
42603;BME280;28233;55.748;48.752;2023-06-14T01:45:48;99705.28;;;13.98;47.98
42603;BME280;28233;55.748;48.752;2023-06-14T01:47:53;99699.53;;;14.03;47.72
42603;BME280;28233;55.748;48.752;2023-06-14T01:49:56;99702.44;;;14.06;48.19
42603;BME280;28233;55.748;48.752;2023-06-14T01:51:59;99695.44;;;14.09;47.93
42603;BME280;28233;55.748;48.752;2023-06-14T01:54:02;99695.22;;;14.14;47.73
42603;BME280;28233;55.748;48.752;2023-06-14T01:56:05;99690.97;;;14.16;47.28
42603;BME280;28233;55.748;48.752;2023-06-14T01:58:09;99686.38;;;14.21;47.79
42603;BME280;28233;55.748;48.752;2023-06-14T02:00:14;99699.16;;;14.25;47.90
42603;BME280;28233;55.748;48.752;2023-06-14T02:02:17;99700.06;;;14.29;47.91
42603;BME280;28233;55.748;48.752;2023-06-14T02:04:20;99695.94;;;14.35;48.09
42603;BME280;28233;55.748;48.752;2023-06-14T02:06:24;99693.75;;;14.41;47.82
42603;BME280;28233;55.748;48.752;2023-06-14T02:08:29;99696.28;;;14.46;47.75
42603;BME280;28233;55.748;48.752;2023-06-14T02:10:32;99693.66;;;14.50;47.59
42603;BME280;28233;55.748;48.752;2023-06-14T02:12:37;99686.81;;;14.56;48.09
42603;BME280;28233;55.748;48.752;2023-06-14T02:14:40;99689.81;;;14.63;47.54
42603;BME280;28233;55.748;48.752;2023-06-14T02:16:43;99688.75;;;14.68;47.88
42603;BME280;28233;55.748;48.752;2023-06-14T02:18:51;99691.75;;;14.75;48.19
42603;BME280;28233;55.748;48.752;2023-06-14T02:20:55;99694.63;;;14.78;48.51
42603;BME280;28233;55.748;48.752;2023-06-14T02:22:59;99693.97;;;14.82;48.56
42603;BME280;28233;55.748;48.752;2023-06-14T02:25:03;99700.38;;;14.86;48.62
42603;BME280;28233;55.748;48.752;2023-06-14T02:27:06;99696.94;;;14.89;48.62
42603;BME280;28233;55.748;48.752;2023-06-14T02:29:09;99693.81;;;14.90;48.67
42603;BME280;28233;55.748;48.752;2023-06-14T02:31:14;99694.28;;;14.92;48.91
42603;BME280;28233;55.748;48.752;2023-06-14T02:33:19;99688.75;;;14.92;48.83
42603;BME280;28233;55.748;48.752;2023-06-14T02:35:22;99687.25;;;14.95;48.48
42603;BME280;28233;55.748;48.752;2023-06-14T02:37:28;99684.59;;;14.98;48.43
42603;BME280;28233;55.748;48.752;2023-06-14T02:39:31;99682.31;;;15.00;48.51
42603;BME280;28233;55.748;48.752;2023-06-14T02:41:34;99681.59;;;15.04;49.07
42603;BME280;28233;55.748;48.752;2023-06-14T02:43:37;99680.09;;;15.06;48.81
42603;BME280;28233;55.748;48.752;2023-06-14T02:45:40;99684.59;;;15.11;48.50
42603;BME280;28233;55.748;48.752;2023-06-14T02:47:43;99686.31;;;15.15;48.60
42603;BME280;28233;55.748;48.752;2023-06-14T02:49:46;99677.41;;;15.22;47.93
42603;BME280;28233;55.748;48.752;2023-06-14T02:51:49;99680.03;;;15.31;48.41
42603;BME280;28233;55.748;48.752;2023-06-14T02:53:52;99679.44;;;15.37;48.38
42603;BME280;28233;55.748;48.752;2023-06-14T02:55:55;99675.84;;;15.49;48.27
42603;BME280;28233;55.748;48.752;2023-06-14T02:57:58;99667.06;;;15.59;48.46
42603;BME280;28233;55.748;48.752;2023-06-14T03:00:00;99673.03;;;15.74;48.41
42603;BME280;28233;55.748;48.752;2023-06-14T03:02:06;99669.41;;;15.85;47.41
42603;BME280;28233;55.748;48.752;2023-06-14T03:04:09;99678.09;;;16.00;47.12
42603;BME280;28233;55.748;48.752;2023-06-14T03:06:12;99674.00;;;16.10;47.20
42603;BME280;28233;55.748;48.752;2023-06-14T03:08:17;99670.25;;;16.18;47.44
42603;BME280;28233;55.748;48.752;2023-06-14T03:10:21;99676.69;;;16.22;47.41
42603;BME280;28233;55.748;48.752;2023-06-14T03:12:24;99674.66;;;16.19;47.36
42603;BME280;28233;55.748;48.752;2023-06-14T03:14:27;99675.97;;;16.25;47.82
42603;BME280;28233;55.748;48.752;2023-06-14T03:16:31;99675.72;;;16.30;47.74
42603;BME280;28233;55.748;48.752;2023-06-14T03:18:34;99663.66;;;16.38;47.60
42603;BME280;28233;55.748;48.752;2023-06-14T03:20:38;99662.94;;;16.41;48.21
42603;BME280;28233;55.748;48.752;2023-06-14T03:22:41;99667.78;;;16.44;48.81
42603;BME280;28233;55.748;48.752;2023-06-14T03:24:44;99666.25;;;16.47;48.88
42603;BME280;28233;55.748;48.752;2023-06-14T03:26:47;99676.34;;;16.55;48.45
42603;BME280;28233;55.748;48.752;2023-06-14T03:28:50;99664.19;;;16.60;48.33
42603;BME280;28233;55.748;48.752;2023-06-14T03:30:53;99666.69;;;16.65;48.78
42603;BME280;28233;55.748;48.752;2023-06-14T03:32:55;99664.34;;;16.67;50.09
42603;BME280;28233;55.748;48.752;2023-06-14T03:34:58;99666.78;;;16.68;50.51
42603;BME280;28233;55.748;48.752;2023-06-14T03:37:01;99662.13;;;16.73;50.42
42603;BME280;28233;55.748;48.752;2023-06-14T03:39:04;99662.66;;;16.78;50.84
42603;BME280;28233;55.748;48.752;2023-06-14T03:41:06;99669.56;;;16.84;50.69
42603;BME280;28233;55.748;48.752;2023-06-14T03:43:09;99674.84;;;16.89;50.58
42603;BME280;28233;55.748;48.752;2023-06-14T03:45:13;99664.19;;;16.92;49.97
42603;BME280;28233;55.748;48.752;2023-06-14T03:47:15;99663.91;;;16.97;49.92
42603;BME280;28233;55.748;48.752;2023-06-14T03:49:19;99657.34;;;17.05;49.29
42603;BME280;28233;55.748;48.752;2023-06-14T03:51:22;99647.41;;;17.04;48.11
42603;BME280;28233;55.748;48.752;2023-06-14T03:53:25;99655.25;;;17.18;47.95
42603;BME280;28233;55.748;48.752;2023-06-14T03:55:30;99660.69;;;17.30;48.14
42603;BME280;28233;55.748;48.752;2023-06-14T03:57:39;99668.06;;;17.42;48.06
42603;BME280;28233;55.748;48.752;2023-06-14T03:59:42;99662.81;;;17.56;48.36
42603;BME280;28233;55.748;48.752;2023-06-14T04:01:44;99660.72;;;17.69;47.74
42603;BME280;28233;55.748;48.752;2023-06-14T04:03:49;99668.81;;;17.78;46.42
42603;BME280;28233;55.748;48.752;2023-06-14T04:05:52;99668.25;;;17.88;46.33
42603;BME280;28233;55.748;48.752;2023-06-14T04:07:59;99665.31;;;18.00;46.28
42603;BME280;28233;55.748;48.752;2023-06-14T04:10:03;99665.00;;;18.05;46.64
42603;BME280;28233;55.748;48.752;2023-06-14T04:12:07;99665.53;;;18.11;47.07
42603;BME280;28233;55.748;48.752;2023-06-14T04:14:11;99669.97;;;18.15;47.46
42603;BME280;28233;55.748;48.752;2023-06-14T04:16:14;99671.56;;;18.16;46.92
42603;BME280;28233;55.748;48.752;2023-06-14T04:18:17;99679.59;;;18.22;47.74
42603;BME280;28233;55.748;48.752;2023-06-14T04:20:25;99682.38;;;18.22;47.66
42603;BME280;28233;55.748;48.752;2023-06-14T04:22:29;99682.06;;;18.27;48.10
42603;BME280;28233;55.748;48.752;2023-06-14T04:24:32;99669.84;;;18.31;49.39
42603;BME280;28233;55.748;48.752;2023-06-14T04:26:37;99668.00;;;18.39;48.64
42603;BME280;28233;55.748;48.752;2023-06-14T04:28:40;99668.31;;;18.57;47.09
42603;BME280;28233;55.748;48.752;2023-06-14T04:30:43;99668.16;;;18.73;46.05
42603;BME280;28233;55.748;48.752;2023-06-14T04:32:47;99664.56;;;18.95;46.16
42603;BME280;28233;55.748;48.752;2023-06-14T04:34:50;99673.53;;;19.12;44.90
42603;BME280;28233;55.748;48.752;2023-06-14T04:36:53;99670.25;;;19.33;44.55
42603;BME280;28233;55.748;48.752;2023-06-14T04:38:58;99659.19;;;19.36;43.52
42603;BME280;28233;55.748;48.752;2023-06-14T04:41:01;99659.28;;;19.43;43.15
42603;BME280;28233;55.748;48.752;2023-06-14T04:43:04;99652.84;;;19.39;42.22
42603;BME280;28233;55.748;48.752;2023-06-14T04:45:07;99661.28;;;19.47;41.25
42603;BME280;28233;55.748;48.752;2023-06-14T04:47:11;99660.94;;;19.52;40.57
42603;BME280;28233;55.748;48.752;2023-06-14T04:49:15;99660.94;;;19.52;41.34
42603;BME280;28233;55.748;48.752;2023-06-14T04:51:19;99658.22;;;19.55;40.68
42603;BME280;28233;55.748;48.752;2023-06-14T04:53:24;99664.25;;;19.61;41.48
42603;BME280;28233;55.748;48.752;2023-06-14T04:55:31;99659.63;;;19.69;42.00
42603;BME280;28233;55.748;48.752;2023-06-14T04:57:35;99658.13;;;19.78;41.22
42603;BME280;28233;55.748;48.752;2023-06-14T04:59:38;99655.38;;;19.82;40.97
42603;BME280;28233;55.748;48.752;2023-06-14T05:01:40;99642.97;;;19.76;39.84
42603;BME280;28233;55.748;48.752;2023-06-14T05:03:43;99657.94;;;19.94;40.38
42603;BME280;28233;55.748;48.752;2023-06-14T05:05:48;99650.84;;;20.04;40.36
42603;BME280;28233;55.748;48.752;2023-06-14T05:07:51;99657.25;;;20.08;41.26
42603;BME280;28233;55.748;48.752;2023-06-14T05:09:53;99645.78;;;20.13;41.41
42603;BME280;28233;55.748;48.752;2023-06-14T05:11:56;99647.84;;;20.23;41.85
42603;BME280;28233;55.748;48.752;2023-06-14T05:14:00;99649.13;;;20.30;41.27
42603;BME280;28233;55.748;48.752;2023-06-14T05:16:03;99647.13;;;20.34;41.08
42603;BME280;28233;55.748;48.752;2023-06-14T05:18:06;99649.56;;;20.39;41.59
42603;BME280;28233;55.748;48.752;2023-06-14T05:20:12;99656.47;;;20.48;40.98
42603;BME280;28233;55.748;48.752;2023-06-14T05:22:15;99651.69;;;20.53;39.86
42603;BME280;28233;55.748;48.752;2023-06-14T05:24:18;99648.53;;;20.54;39.83
42603;BME280;28233;55.748;48.752;2023-06-14T05:26:21;99649.44;;;20.65;40.10
42603;BME280;28233;55.748;48.752;2023-06-14T05:28:25;99648.28;;;20.70;39.09
42603;BME280;28233;55.748;48.752;2023-06-14T05:30:28;99648.75;;;20.83;39.08
42603;BME280;28233;55.748;48.752;2023-06-14T05:32:33;99652.78;;;20.85;39.46
42603;BME280;28233;55.748;48.752;2023-06-14T05:34:36;99646.44;;;20.92;39.31
42603;BME280;28233;55.748;48.752;2023-06-14T05:36:38;99646.84;;;20.94;40.01
42603;BME280;28233;55.748;48.752;2023-06-14T05:38:41;99643.97;;;20.80;38.97
42603;BME280;28233;55.748;48.752;2023-06-14T05:40:44;99643.94;;;20.76;39.88
42603;BME280;28233;55.748;48.752;2023-06-14T05:42:47;99643.13;;;20.76;40.63
42603;BME280;28233;55.748;48.752;2023-06-14T05:44:50;99638.81;;;20.85;42.26
42603;BME280;28233;55.748;48.752;2023-06-14T05:46:53;99643.22;;;20.90;40.92
42603;BME280;28233;55.748;48.752;2023-06-14T05:48:56;99635.31;;;20.96;40.28
42603;BME280;28233;55.748;48.752;2023-06-14T05:50:59;99644.09;;;21.01;38.97
42603;BME280;28233;55.748;48.752;2023-06-14T05:53:02;99634.19;;;21.07;39.89
42603;BME280;28233;55.748;48.752;2023-06-14T05:55:05;99638.97;;;21.14;41.06
42603;BME280;28233;55.748;48.752;2023-06-14T05:57:08;99627.81;;;21.14;40.11
42603;BME280;28233;55.748;48.752;2023-06-14T05:59:11;99623.75;;;21.04;40.29
42603;BME280;28233;55.748;48.752;2023-06-14T06:01:14;99636.16;;;21.03;41.49
42603;BME280;28233;55.748;48.752;2023-06-14T06:03:17;99638.09;;;20.99;40.71
42603;BME280;28233;55.748;48.752;2023-06-14T06:05:20;99627.75;;;21.03;41.23
42603;BME280;28233;55.748;48.752;2023-06-14T06:07:23;99636.59;;;21.16;41.56
42603;BME280;28233;55.748;48.752;2023-06-14T06:09:26;99635.03;;;21.19;39.43
42603;BME280;28233;55.748;48.752;2023-06-14T06:11:28;99638.28;;;21.35;39.38
42603;BME280;28233;55.748;48.752;2023-06-14T06:13:45;99627.66;;;21.55;39.56
42603;BME280;28233;55.748;48.752;2023-06-14T06:15:48;99633.28;;;21.69;38.36
42603;BME280;28233;55.748;48.752;2023-06-14T06:17:51;99633.69;;;21.75;38.93
42603;BME280;28233;55.748;48.752;2023-06-14T06:19:58;99630.91;;;21.82;38.99
42603;BME280;28233;55.748;48.752;2023-06-14T06:22:01;99634.97;;;21.99;38.82
42603;BME280;28233;55.748;48.752;2023-06-14T06:24:05;99631.84;;;22.26;38.93
42603;BME280;28233;55.748;48.752;2023-06-14T06:26:08;99633.84;;;22.47;39.57
42603;BME280;28233;55.748;48.752;2023-06-14T06:28:11;99627.84;;;22.70;37.54
42603;BME280;28233;55.748;48.752;2023-06-14T06:30:13;99623.03;;;22.85;37.49
42603;BME280;28233;55.748;48.752;2023-06-14T06:32:17;99623.81;;;22.96;37.71
42603;BME280;28233;55.748;48.752;2023-06-14T06:34:20;99625.84;;;22.99;36.62
42603;BME280;28233;55.748;48.752;2023-06-14T06:36:23;99617.41;;;23.06;35.51
42603;BME280;28233;55.748;48.752;2023-06-14T06:38:26;99621.81;;;23.04;34.94
42603;BME280;28233;55.748;48.752;2023-06-14T06:40:28;99623.81;;;22.89;32.38
42603;BME280;28233;55.748;48.752;2023-06-14T06:42:32;99626.25;;;22.72;32.08
42603;BME280;28233;55.748;48.752;2023-06-14T06:44:35;99625.06;;;22.52;34.25
42603;BME280;28233;55.748;48.752;2023-06-14T06:46:38;99621.88;;;22.53;35.05
42603;BME280;28233;55.748;48.752;2023-06-14T06:48:45;99622.66;;;22.61;34.49
42603;BME280;28233;55.748;48.752;2023-06-14T06:50:48;99621.06;;;22.74;33.26
42603;BME280;28233;55.748;48.752;2023-06-14T06:52:51;99631.03;;;22.75;31.96
42603;BME280;28233;55.748;48.752;2023-06-14T06:54:53;99624.63;;;22.78;33.14
42603;BME280;28233;55.748;48.752;2023-06-14T06:56:58;99622.22;;;22.88;32.33
42603;BME280;28233;55.748;48.752;2023-06-14T06:59:01;99607.00;;;22.96;33.19
42603;BME280;28233;55.748;48.752;2023-06-14T07:01:04;99603.41;;;23.06;32.53
42603;BME280;28233;55.748;48.752;2023-06-14T07:03:07;99606.59;;;23.12;31.42
42603;BME280;28233;55.748;48.752;2023-06-14T07:05:10;99608.59;;;23.04;30.58
42603;BME280;28233;55.748;48.752;2023-06-14T07:07:13;99609.38;;;22.97;31.06
42603;BME280;28233;55.748;48.752;2023-06-14T07:09:16;99613.00;;;23.02;31.47
42603;BME280;28233;55.748;48.752;2023-06-14T07:11:19;99603.41;;;23.06;30.82
42603;BME280;28233;55.748;48.752;2023-06-14T07:13:22;99603.78;;;23.15;30.56
42603;BME280;28233;55.748;48.752;2023-06-14T07:15:25;99600.53;;;23.24;30.97
42603;BME280;28233;55.748;48.752;2023-06-14T07:17:28;99604.53;;;23.27;30.17
42603;BME280;28233;55.748;48.752;2023-06-14T07:19:31;99602.97;;;23.11;29.74
42603;BME280;28233;55.748;48.752;2023-06-14T07:21:35;99595.00;;;22.95;28.87
42603;BME280;28233;55.748;48.752;2023-06-14T07:23:40;99604.59;;;22.94;30.25
42603;BME280;28233;55.748;48.752;2023-06-14T07:25:43;99602.97;;;22.97;29.75
42603;BME280;28233;55.748;48.752;2023-06-14T07:27:46;99591.78;;;23.08;30.20
42603;BME280;28233;55.748;48.752;2023-06-14T07:29:49;99595.78;;;23.10;29.83
42603;BME280;28233;55.748;48.752;2023-06-14T07:31:52;99601.78;;;23.09;28.32
42603;BME280;28233;55.748;48.752;2023-06-14T07:33:55;99595.41;;;23.01;27.42
42603;BME280;28233;55.748;48.752;2023-06-14T07:35:58;99595.00;;;22.99;27.47
42603;BME280;28233;55.748;48.752;2023-06-14T07:38:01;99587.78;;;23.05;28.13
42603;BME280;28233;55.748;48.752;2023-06-14T07:40:04;99584.19;;;23.12;29.10
42603;BME280;28233;55.748;48.752;2023-06-14T07:42:10;99576.50;;;23.27;28.54
42603;BME280;28233;55.748;48.752;2023-06-14T07:44:13;99582.13;;;23.27;28.77
42603;BME280;28233;55.748;48.752;2023-06-14T07:46:16;99575.72;;;23.23;28.95
42603;BME280;28233;55.748;48.752;2023-06-14T07:48:19;99576.13;;;23.14;29.66
42603;BME280;28233;55.748;48.752;2023-06-14T07:50:22;99578.16;;;23.13;28.41
42603;BME280;28233;55.748;48.752;2023-06-14T07:52:25;99578.16;;;23.06;27.81
42603;BME280;28233;55.748;48.752;2023-06-14T07:54:28;99577.00;;;23.00;27.96
42603;BME280;28233;55.748;48.752;2023-06-14T07:56:32;99576.19;;;22.89;28.02
42603;BME280;28233;55.748;48.752;2023-06-14T07:58:35;99573.84;;;22.76;28.99
42603;BME280;28233;55.748;48.752;2023-06-14T08:00:38;99568.59;;;22.78;27.52
42603;BME280;28233;55.748;48.752;2023-06-14T08:02:42;99565.81;;;22.78;28.39
42603;BME280;28233;55.748;48.752;2023-06-14T08:04:45;99561.78;;;22.83;29.76
42603;BME280;28233;55.748;48.752;2023-06-14T08:06:49;99564.97;;;22.96;30.54
42603;BME280;28233;55.748;48.752;2023-06-14T08:08:52;99562.16;;;23.10;29.47
42603;BME280;28233;55.748;48.752;2023-06-14T08:10:55;99566.13;;;23.24;29.90
42603;BME280;28233;55.748;48.752;2023-06-14T08:12:57;99556.47;;;23.28;31.31
42603;BME280;28233;55.748;48.752;2023-06-14T08:15:00;99554.44;;;23.32;29.67
42603;BME280;28233;55.748;48.752;2023-06-14T08:17:10;99543.66;;;23.27;29.48
42603;BME280;28233;55.748;48.752;2023-06-14T08:19:13;99542.06;;;23.26;30.18
42603;BME280;28233;55.748;48.752;2023-06-14T08:21:16;99546.47;;;23.27;30.10
42603;BME280;28233;55.748;48.752;2023-06-14T08:23:18;99544.88;;;23.23;29.56
42603;BME280;28233;55.748;48.752;2023-06-14T08:25:23;99547.69;;;23.26;30.62
42603;BME280;28233;55.748;48.752;2023-06-14T08:27:26;99542.44;;;23.35;29.36
42603;BME280;28233;55.748;48.752;2023-06-14T08:29:32;99544.03;;;23.33;29.07
42603;BME280;28233;55.748;48.752;2023-06-14T08:31:35;99539.63;;;23.35;29.15
42603;BME280;28233;55.748;48.752;2023-06-14T08:33:38;99540.03;;;23.34;29.75
42603;BME280;28233;55.748;48.752;2023-06-14T08:35:46;99533.63;;;23.33;29.16
42603;BME280;28233;55.748;48.752;2023-06-14T08:37:49;99540.47;;;23.29;28.92
42603;BME280;28233;55.748;48.752;2023-06-14T08:39:52;99528.06;;;23.26;29.06
42603;BME280;28233;55.748;48.752;2023-06-14T08:41:56;99530.47;;;23.20;28.43
42603;BME280;28233;55.748;48.752;2023-06-14T08:43:59;99516.41;;;23.28;29.27
42603;BME280;28233;55.748;48.752;2023-06-14T08:46:03;99532.81;;;23.36;28.43
42603;BME280;28233;55.748;48.752;2023-06-14T08:48:07;99524.41;;;23.33;27.11
42603;BME280;28233;55.748;48.752;2023-06-14T08:50:11;99523.59;;;23.32;28.45
42603;BME280;28233;55.748;48.752;2023-06-14T08:52:19;99516.81;;;23.30;28.19
42603;BME280;28233;55.748;48.752;2023-06-14T08:54:25;99526.75;;;23.45;28.78
42603;BME280;28233;55.748;48.752;2023-06-14T08:56:31;99533.53;;;23.51;27.55
42603;BME280;28233;55.748;48.752;2023-06-14T08:58:34;99525.19;;;23.40;26.63
42603;BME280;28233;55.748;48.752;2023-06-14T09:00:37;99519.94;;;23.46;26.00
42603;BME280;28233;55.748;48.752;2023-06-14T09:02:41;99518.28;;;23.56;27.75
42603;BME280;28233;55.748;48.752;2023-06-14T09:04:45;99512.59;;;23.74;25.92
42603;BME280;28233;55.748;48.752;2023-06-14T09:06:48;99520.09;;;23.88;27.64
42603;BME280;28233;55.748;48.752;2023-06-14T09:08:55;99516.00;;;23.99;26.95
42603;BME280;28233;55.748;48.752;2023-06-14T09:11:01;99521.44;;;24.17;27.63
42603;BME280;28233;55.748;48.752;2023-06-14T09:13:04;99517.34;;;24.29;26.69
42603;BME280;28233;55.748;48.752;2023-06-14T09:15:08;99522.03;;;24.43;27.91
42603;BME280;28233;55.748;48.752;2023-06-14T09:17:13;99508.78;;;24.47;27.66
42603;BME280;28233;55.748;48.752;2023-06-14T09:19:25;99510.84;;;24.39;25.86
42603;BME280;28233;55.748;48.752;2023-06-14T09:21:33;99515.78;;;24.24;25.44
42603;BME280;28233;55.748;48.752;2023-06-14T09:23:45;99507.88;;;24.12;24.82
42603;BME280;28233;55.748;48.752;2023-06-14T09:25:50;99505.09;;;24.09;25.39
42603;BME280;28233;55.748;48.752;2023-06-14T09:27:53;99511.16;;;24.03;24.88
42603;BME280;28233;55.748;48.752;2023-06-14T09:29:56;99503.53;;;24.04;24.84
42603;BME280;28233;55.748;48.752;2023-06-14T09:31:59;99504.72;;;24.03;23.20
42603;BME280;28233;55.748;48.752;2023-06-14T09:34:02;99500.28;;;24.09;25.73
42603;BME280;28233;55.748;48.752;2023-06-14T09:36:10;99495.78;;;24.19;24.96
42603;BME280;28233;55.748;48.752;2023-06-14T09:38:13;99504.97;;;24.23;23.98
42603;BME280;28233;55.748;48.752;2023-06-14T09:40:20;99491.41;;;24.18;24.48
42603;BME280;28233;55.748;48.752;2023-06-14T09:42:23;99490.56;;;24.21;25.78
42603;BME280;28233;55.748;48.752;2023-06-14T09:44:28;99494.94;;;24.22;27.56
42603;BME280;28233;55.748;48.752;2023-06-14T09:46:33;99499.25;;;24.34;26.62
42603;BME280;28233;55.748;48.752;2023-06-14T09:48:36;99493.94;;;24.43;27.31
42603;BME280;28233;55.748;48.752;2023-06-14T09:50:39;99482.28;;;24.48;26.84
42603;BME280;28233;55.748;48.752;2023-06-14T09:52:47;99491.44;;;24.56;27.37
42603;BME280;28233;55.748;48.752;2023-06-14T09:54:53;99488.13;;;24.64;26.15
42603;BME280;28233;55.748;48.752;2023-06-14T09:56:57;99497.69;;;24.71;27.03
42603;BME280;28233;55.748;48.752;2023-06-14T09:59:04;99492.78;;;24.78;25.79
42603;BME280;28233;55.748;48.752;2023-06-14T10:01:10;99485.81;;;24.90;25.33
42603;BME280;28233;55.748;48.752;2023-06-14T10:03:28;99492.72;;;25.16;26.21
42603;BME280;28233;55.748;48.752;2023-06-14T10:05:52;99495.06;;;25.25;26.29
42603;BME280;28233;55.748;48.752;2023-06-14T10:08:07;99488.81;;;25.41;26.04
42603;BME280;28233;55.748;48.752;2023-06-14T10:10:11;99477.38;;;25.51;27.56
42603;BME280;28233;55.748;48.752;2023-06-14T10:12:14;99468.44;;;25.60;27.32
42603;BME280;28233;55.748;48.752;2023-06-14T10:14:23;99466.63;;;25.73;26.32
42603;BME280;28233;55.748;48.752;2023-06-14T10:19:29;99465.88;;;25.97;25.66
42603;BME280;28233;55.748;48.752;2023-06-14T10:21:56;99474.00;;;25.91;25.84
42603;BME280;28233;55.748;48.752;2023-06-14T10:24:05;99472.91;;;25.81;25.38
42603;BME280;28233;55.748;48.752;2023-06-14T10:26:08;99466.91;;;25.79;25.19
42603;BME280;28233;55.748;48.752;2023-06-14T10:30:25;99463.09;;;25.93;23.93
42603;BME280;28233;55.748;48.752;2023-06-14T10:32:28;99461.41;;;25.99;23.08
42603;BME280;28233;55.748;48.752;2023-06-14T10:34:31;99463.22;;;26.09;22.77
42603;BME280;28233;55.748;48.752;2023-06-14T10:36:34;99456.00;;;26.32;22.45
42603;BME280;28233;55.748;48.752;2023-06-14T10:38:38;99459.59;;;26.56;22.52
42603;BME280;28233;55.748;48.752;2023-06-14T10:40:41;99451.94;;;26.56;22.81
42603;BME280;28233;55.748;48.752;2023-06-14T10:42:53;99450.09;;;26.46;23.11
42603;BME280;28233;55.748;48.752;2023-06-14T10:44:57;99447.41;;;26.39;23.40
42603;BME280;28233;55.748;48.752;2023-06-14T10:49:39;99440.25;;;26.58;21.83
42603;BME280;28233;55.748;48.752;2023-06-14T10:51:49;99440.72;;;26.73;23.34
42603;BME280;28233;55.748;48.752;2023-06-14T10:53:56;99436.03;;;26.86;22.71
42603;BME280;28233;55.748;48.752;2023-06-14T10:56:06;99431.31;;;26.99;21.88
42603;BME280;28233;55.748;48.752;2023-06-14T10:58:09;99429.34;;;27.16;23.55
42603;BME280;28233;55.748;48.752;2023-06-14T11:00:13;99420.59;;;27.31;22.87